createdAt,value
2017-10-10T00:00:19.563Z,5.97
2017-10-10T00:02:47.060Z,7.90
2017-10-10T00:05:14.580Z,11.53
2017-10-10T00:07:42.076Z,7.07
2017-10-10T00:10:09.580Z,10.23
2017-10-10T00:12:37.098Z,6.20
2017-10-10T00:15:04.597Z,6.67
2017-10-10T00:17:32.107Z,7.07
2017-10-10T00:19:59.604Z,8.53
2017-10-10T00:22:27.884Z,7.73
2017-10-10T00:24:55.392Z,7.23
2017-10-10T00:27:22.908Z,13.77
2017-10-10T00:29:50.407Z,6.97
2017-10-10T00:32:18.431Z,7.70
2017-10-10T00:34:45.998Z,9.63
2017-10-10T00:37:14.208Z,10.90
2017-10-10T00:39:41.809Z,11.00
2017-10-10T00:42:10.142Z,10.17
2017-10-10T00:44:37.687Z,13.47
2017-10-10T00:47:05.206Z,7.00
2017-10-10T00:49:33.476Z,11.20
2017-10-10T00:52:01.750Z,11.23
2017-10-10T00:54:30.011Z,6.70
2017-10-10T00:56:57.526Z,7.50
2017-10-10T00:59:25.028Z,10.23
2017-10-10T01:01:52.538Z,10.17
2017-10-10T01:04:20.039Z,8.00
2017-10-10T01:06:47.547Z,8.90
2017-10-10T01:09:15.044Z,9.37
2017-10-10T01:11:42.565Z,10.40
2017-10-10T01:14:10.073Z,10.93
2017-10-10T01:16:37.569Z,8.87
2017-10-10T01:19:05.087Z,10.00
2017-10-10T01:21:32.580Z,9.93
2017-10-10T01:24:00.094Z,8.53
2017-10-10T01:26:27.591Z,11.40
2017-10-10T01:28:55.867Z,8.63
2017-10-10T01:31:24.127Z,10.23
2017-10-10T01:33:52.432Z,10.80
2017-10-10T01:36:20.309Z,10.90
2017-10-10T01:38:47.811Z,8.67
2017-10-10T01:41:15.326Z,10.00
2017-10-10T01:43:42.818Z,7.87
2017-10-10T01:46:10.335Z,11.43
2017-10-10T01:48:37.828Z,8.70
2017-10-10T01:51:05.338Z,8.47
2017-10-10T01:53:32.839Z,8.97
2017-10-10T01:56:00.356Z,7.30
2017-10-10T01:58:27.856Z,9.73
2017-10-10T02:00:55.376Z,7.57
2017-10-10T02:03:22.874Z,9.70
2017-10-10T02:05:50.394Z,7.07
2017-10-10T02:08:17.895Z,9.27
2017-10-10T02:10:45.403Z,8.40
2017-10-10T02:13:12.894Z,6.00
2017-10-10T02:15:40.403Z,7.93
2017-10-10T02:18:08.668Z,5.87
2017-10-10T02:20:36.958Z,6.77
2017-10-10T02:23:05.219Z,9.30
2017-10-10T02:25:32.761Z,6.90
2017-10-10T02:28:00.256Z,6.23
2017-10-10T02:30:28.528Z,12.67
2017-10-10T02:32:56.808Z,7.33
2017-10-10T02:35:24.304Z,7.07
2017-10-10T02:37:51.815Z,7.60
2017-10-10T02:40:20.079Z,6.90
2017-10-10T02:42:48.368Z,5.90
2017-10-10T02:45:16.628Z,4.90
2017-10-10T02:47:44.143Z,5.47
2017-10-10T02:50:11.635Z,5.93
2017-10-10T02:52:39.144Z,4.37
2017-10-10T02:55:06.644Z,5.60
2017-10-10T02:57:34.155Z,9.17
2017-10-10T03:00:01.652Z,5.73
2017-10-10T03:02:29.168Z,5.40
2017-10-10T03:04:56.659Z,5.60
2017-10-10T03:07:24.934Z,6.80
2017-10-10T03:09:52.426Z,6.40
2017-10-10T03:12:19.940Z,7.17
2017-10-10T03:14:47.435Z,4.83
2017-10-10T03:17:14.943Z,6.20
2017-10-10T03:19:42.439Z,5.50
2017-10-10T03:22:10.207Z,5.63
2017-10-10T03:24:37.702Z,6.10
2017-10-10T03:27:05.230Z,9.07
2017-10-10T03:29:32.728Z,5.67
2017-10-10T03:32:01.394Z,4.97
2017-10-10T03:34:28.939Z,7.13
2017-10-10T03:36:56.431Z,5.50
2017-10-10T03:39:23.951Z,4.97
2017-10-10T03:41:51.438Z,5.50
2017-10-10T03:44:18.954Z,5.57
2017-10-10T03:46:46.451Z,8.80
2017-10-10T03:49:14.731Z,7.97
2017-10-10T03:51:42.227Z,5.37
2017-10-10T03:54:09.750Z,9.93
2017-10-10T03:56:37.632Z,6.00
2017-10-10T03:59:05.151Z,10.30
2017-10-10T04:01:33.426Z,8.20
2017-10-10T04:04:02.000Z,7.50
2017-10-10T04:06:29.495Z,5.30
2017-10-10T04:08:57.012Z,6.10
2017-10-10T04:11:24.515Z,6.33
2017-10-10T04:13:52.027Z,10.07
2017-10-10T04:16:19.519Z,8.93
2017-10-10T04:18:47.035Z,6.03
2017-10-10T04:21:14.529Z,9.27
2017-10-10T04:23:42.806Z,6.60
2017-10-10T04:26:11.078Z,11.27
2017-10-10T04:28:39.372Z,10.27
2017-10-10T04:31:06.888Z,8.50
2017-10-10T04:33:34.415Z,9.33
2017-10-10T04:36:01.912Z,8.90
2017-10-10T04:38:29.416Z,10.00
2017-10-10T04:40:56.934Z,11.10
2017-10-10T04:43:25.191Z,8.13
2017-10-10T04:45:52.720Z,12.23
2017-10-10T04:48:20.229Z,11.67
2017-10-10T04:50:48.507Z,10.37
2017-10-10T04:53:16.767Z,13.90
2017-10-10T04:55:44.287Z,14.80
2017-10-10T04:58:11.783Z,12.27
2017-10-10T05:00:39.297Z,11.33
2017-10-10T05:03:06.800Z,11.53
2017-10-10T05:05:34.323Z,13.70
2017-10-10T05:08:01.832Z,15.63
2017-10-10T05:10:30.121Z,12.63
2017-10-10T05:12:57.619Z,17.43
2017-10-10T05:15:25.140Z,19.07
2017-10-10T05:17:52.635Z,14.63
2017-10-10T05:20:20.155Z,16.37
2017-10-10T05:22:47.663Z,21.60
2017-10-10T05:25:15.184Z,19.53
2017-10-10T05:27:42.679Z,18.23
2017-10-10T05:30:10.196Z,19.13
2017-10-10T05:32:37.703Z,21.57
2017-10-10T05:35:05.240Z,18.87
2017-10-10T05:37:32.749Z,18.23
2017-10-10T05:40:01.011Z,17.67
2017-10-10T05:42:28.528Z,19.23
2017-10-10T05:44:56.027Z,23.20
2017-10-10T05:47:23.563Z,18.07
2017-10-10T05:49:51.058Z,20.47
2017-10-10T05:52:19.334Z,17.30
2017-10-10T05:54:47.602Z,11.23
2017-10-10T05:57:15.882Z,15.33
2017-10-10T05:59:44.143Z,17.60
2017-10-10T06:02:11.664Z,13.63
2017-10-10T06:04:39.172Z,13.60
2017-10-10T06:07:07.456Z,17.03
2017-10-10T06:09:35.715Z,16.30
2017-10-10T06:12:04.003Z,16.17
2017-10-10T06:14:32.273Z,16.30
2017-10-10T06:16:59.812Z,17.25
2017-10-10T06:19:27.316Z,16.97
2017-10-10T06:21:54.830Z,22.53
2017-10-10T06:24:22.331Z,19.03
2017-10-10T06:26:49.855Z,20.83
2017-10-10T06:29:17.360Z,16.73
2017-10-10T06:31:44.888Z,20.30
2017-10-10T06:34:13.160Z,19.27
2017-10-10T06:36:41.447Z,21.27
2017-10-10T06:39:08.945Z,17.23
2017-10-10T06:41:36.468Z,17.37
2017-10-10T06:44:03.992Z,22.57
2017-10-10T06:46:31.487Z,17.30
2017-10-10T06:48:59.003Z,19.47
2017-10-10T06:51:26.508Z,18.60
2017-10-10T06:53:54.036Z,16.37
2017-10-10T06:56:22.299Z,18.27
2017-10-10T06:58:49.818Z,22.07
2017-10-10T07:01:17.328Z,22.50
2017-10-10T07:03:45.611Z,22.57
2017-10-10T07:06:13.883Z,23.07
2017-10-10T07:08:42.175Z,20.00
2017-10-10T07:11:09.684Z,24.00
2017-10-10T07:13:37.213Z,18.87
2017-10-10T07:16:04.727Z,19.47
2017-10-10T07:18:33.019Z,23.77
2017-10-10T07:21:01.295Z,21.57
2017-10-10T07:23:29.606Z,19.57
2017-10-10T07:25:57.112Z,18.83
2017-10-10T07:28:25.404Z,18.13
2017-10-10T07:30:53.687Z,21.40
2017-10-10T07:33:21.216Z,15.03
2017-10-10T07:35:48.719Z,14.83
2017-10-10T07:38:16.238Z,16.30
2017-10-10T07:40:43.740Z,14.93
2017-10-10T07:43:11.288Z,13.20
2017-10-10T07:45:38.791Z,16.83
2017-10-10T07:48:07.060Z,12.90
2017-10-10T07:50:34.579Z,13.03
2017-10-10T07:53:02.096Z,12.50
2017-10-10T07:55:29.627Z,13.20
2017-10-10T07:57:57.139Z,12.93
2017-10-10T08:00:25.431Z,11.77
2017-10-10T08:02:52.951Z,12.27
2017-10-10T08:05:20.476Z,14.07
2017-10-10T08:07:47.983Z,9.80
2017-10-10T08:10:16.284Z,9.70
2017-10-10T08:12:43.792Z,10.23
2017-10-10T08:15:11.324Z,10.67
2017-10-10T08:17:38.832Z,10.83
2017-10-10T08:20:07.119Z,10.93
2017-10-10T08:22:35.388Z,11.60
2017-10-10T08:25:03.686Z,9.17
2017-10-10T08:27:31.187Z,9.17
2017-10-10T08:29:58.702Z,10.47
2017-10-10T08:32:26.211Z,12.50
2017-10-10T08:34:53.732Z,9.63
2017-10-10T08:37:21.243Z,10.20
2017-10-10T08:39:49.540Z,8.60
2017-10-10T08:42:17.057Z,8.90
2017-10-10T08:44:44.583Z,8.33
2017-10-10T08:47:12.091Z,7.33
2017-10-10T08:49:39.600Z,9.67
2017-10-10T08:52:07.118Z,11.90
2017-10-10T08:54:35.392Z,9.23
2017-10-10T08:57:03.687Z,12.80
2017-10-10T08:59:31.204Z,10.70
2017-10-10T09:01:58.731Z,9.90
2017-10-10T09:04:26.235Z,5.80
2017-10-10T09:06:53.755Z,8.37
2017-10-10T09:09:21.259Z,10.37
2017-10-10T09:11:49.549Z,5.63
2017-10-10T09:14:17.820Z,6.23
2017-10-10T09:16:46.178Z,4.07
2017-10-10T09:19:13.687Z,4.90
2017-10-10T09:21:41.217Z,7.50
2017-10-10T09:24:08.734Z,5.30
2017-10-10T09:26:36.260Z,5.03
2017-10-10T09:29:03.764Z,6.80
2017-10-10T09:31:32.072Z,5.37
2017-10-10T09:33:59.587Z,3.17
2017-10-10T09:36:27.112Z,4.60
2017-10-10T09:38:54.617Z,3.20
2017-10-10T09:41:22.139Z,6.07
2017-10-10T09:43:49.652Z,3.97
2017-10-10T09:46:17.935Z,8.23
2017-10-10T09:48:46.215Z,4.30
2017-10-10T09:51:13.765Z,3.60
2017-10-10T09:53:42.041Z,4.57
2017-10-10T09:56:10.306Z,5.80
2017-10-10T09:58:38.596Z,6.97
2017-10-10T10:01:06.103Z,4.90
2017-10-10T10:03:33.620Z,6.40
2017-10-10T10:06:01.139Z,3.60
2017-10-10T10:08:28.666Z,4.70
2017-10-10T10:10:56.181Z,3.10
2017-10-10T10:13:24.469Z,4.27
2017-10-10T10:15:51.977Z,4.90
2017-10-10T10:18:19.497Z,4.33
2017-10-10T10:20:46.999Z,3.83
2017-10-10T10:23:14.524Z,5.40
2017-10-10T10:25:42.023Z,3.03
2017-10-10T10:28:09.539Z,3.47
2017-10-10T10:30:37.044Z,3.10
2017-10-10T10:33:04.577Z,5.87
2017-10-10T10:35:32.087Z,3.27
2017-10-10T10:38:00.380Z,3.80
2017-10-10T10:40:27.885Z,4.40
2017-10-10T10:42:55.411Z,3.70
2017-10-10T10:45:22.916Z,2.80
2017-10-10T10:47:50.440Z,5.23
2017-10-10T10:50:17.940Z,3.00
2017-10-10T10:52:46.246Z,9.70
2017-10-10T10:55:13.745Z,5.90
2017-10-10T10:57:41.248Z,3.90
2017-10-10T11:00:09.535Z,4.30
2017-10-10T11:02:37.039Z,7.07
2017-10-10T11:05:04.559Z,3.53
2017-10-10T11:07:32.080Z,4.50
2017-10-10T11:09:59.596Z,4.23
2017-10-10T11:12:27.110Z,4.13
2017-10-10T11:14:55.395Z,4.27
2017-10-10T11:17:22.899Z,5.03
2017-10-10T11:19:50.423Z,4.43
2017-10-10T11:22:17.927Z,5.90
2017-10-10T11:24:45.448Z,3.20
2017-10-10T11:27:12.947Z,3.70
2017-10-10T11:29:40.460Z,3.90
2017-10-10T11:32:08.620Z,5.80
2017-10-10T11:34:36.132Z,5.33
2017-10-10T11:37:03.632Z,3.70
2017-10-10T11:39:31.149Z,5.57
2017-10-10T11:41:58.647Z,7.60
2017-10-10T11:44:26.177Z,5.20
2017-10-10T11:46:53.687Z,4.30
2017-10-10T11:49:21.256Z,6.63
2017-10-10T11:51:48.759Z,6.07
2017-10-10T11:54:16.300Z,4.90
2017-10-10T11:56:43.811Z,4.90
2017-10-10T11:59:11.316Z,5.80
2017-10-10T12:01:38.840Z,6.27
2017-10-10T12:04:06.342Z,6.70
2017-10-10T12:06:33.867Z,4.70
2017-10-10T12:09:01.379Z,5.90
2017-10-10T12:11:28.908Z,7.10
2017-10-10T12:13:56.412Z,5.87
2017-10-10T12:16:23.932Z,6.50
2017-10-10T12:18:51.443Z,4.00
2017-10-10T12:21:18.959Z,4.50
2017-10-10T12:23:47.229Z,3.70
2017-10-10T12:26:14.742Z,4.30
2017-10-10T12:28:42.251Z,4.43
2017-10-10T12:31:10.531Z,3.77
2017-10-10T12:33:38.795Z,2.80
2017-10-10T12:36:06.310Z,9.17
2017-10-10T12:38:33.809Z,4.00
2017-10-10T12:41:01.327Z,4.30
2017-10-10T12:43:28.827Z,5.97
2017-10-10T12:45:56.347Z,3.77
2017-10-10T12:48:23.848Z,4.97
2017-10-10T12:50:52.140Z,4.90
2017-10-10T12:53:20.412Z,5.17
2017-10-10T12:55:48.728Z,4.07
2017-10-10T12:58:16.235Z,5.70
2017-10-10T13:00:44.507Z,3.93
2017-10-10T13:03:12.039Z,6.80
2017-10-10T13:05:39.535Z,3.03
2017-10-10T13:08:07.827Z,3.13
2017-10-10T13:10:35.336Z,7.87
2017-10-10T13:13:03.631Z,5.07
2017-10-10T13:15:31.137Z,4.13
2017-10-10T13:17:58.660Z,4.60
2017-10-10T13:20:26.931Z,8.30
2017-10-10T13:22:55.224Z,3.00
2017-10-10T13:25:23.499Z,5.33
2017-10-10T13:27:51.793Z,5.40
2017-10-10T13:30:19.300Z,4.27
2017-10-10T13:32:46.811Z,9.30
2017-10-10T13:35:14.317Z,6.43
2017-10-10T13:37:41.837Z,4.50
2017-10-10T13:40:09.344Z,3.63
2017-10-10T13:42:36.867Z,3.30
2017-10-10T13:45:04.380Z,7.17
2017-10-10T13:47:32.665Z,6.47
2017-10-10T13:50:00.232Z,3.60
2017-10-10T13:52:27.746Z,5.00
2017-10-10T13:54:55.248Z,2.93
2017-10-10T13:57:22.796Z,5.83
2017-10-10T13:59:51.245Z,4.20
2017-10-10T14:02:18.756Z,4.20
2017-10-10T14:04:46.278Z,4.00
2017-10-10T14:07:14.553Z,4.37
2017-10-10T14:09:42.837Z,10.27
2017-10-10T14:12:11.112Z,12.13
2017-10-10T14:14:39.396Z,4.63
2017-10-10T14:17:07.659Z,4.53
2017-10-10T14:19:35.960Z,3.87
2017-10-10T14:22:03.470Z,3.10
2017-10-10T14:24:30.987Z,3.83
2017-10-10T14:26:58.491Z,3.63
2017-10-10T14:29:26.007Z,4.50
2017-10-10T14:31:53.512Z,5.43
2017-10-10T14:34:21.031Z,6.43
2017-10-10T14:36:48.544Z,4.00
2017-10-10T14:39:16.823Z,7.27
2017-10-10T14:41:45.092Z,3.80
2017-10-10T14:44:13.383Z,4.17
2017-10-10T14:46:41.655Z,3.20
2017-10-10T14:49:09.943Z,5.00
2017-10-10T14:51:37.451Z,4.27
2017-10-10T14:54:04.972Z,5.80
2017-10-10T14:56:32.479Z,3.17
2017-10-10T14:59:00.004Z,3.50
2017-10-10T15:01:28.280Z,3.70
2017-10-10T15:03:55.775Z,3.70
2017-10-10T15:06:23.304Z,5.77
2017-10-10T15:08:50.808Z,3.10
2017-10-10T15:11:19.096Z,3.40
2017-10-10T15:13:46.595Z,4.93
2017-10-10T15:16:14.116Z,8.23
2017-10-10T15:18:41.628Z,4.73
2017-10-10T15:21:09.161Z,5.57
2017-10-10T15:23:36.669Z,7.17
2017-10-10T15:26:04.960Z,2.87
2017-10-10T15:28:33.229Z,3.57
2017-10-10T15:31:01.515Z,3.87
2017-10-10T15:33:29.019Z,3.23
2017-10-10T15:35:56.539Z,3.53
2017-10-10T15:38:24.046Z,4.93
2017-10-10T15:40:51.564Z,6.33
2017-10-10T15:43:19.066Z,6.00
2017-10-10T15:45:46.588Z,5.97
2017-10-10T15:48:14.091Z,3.70
2017-10-10T15:50:41.619Z,6.23
2017-10-10T15:53:09.123Z,20.10
2017-10-10T15:55:37.403Z,8.77
2017-10-10T15:58:05.670Z,6.80
2017-10-10T16:00:33.953Z,6.37
2017-10-10T16:03:02.228Z,3.70
2017-10-10T16:05:30.540Z,5.30
2017-10-10T16:07:58.040Z,4.77
2017-10-10T16:10:25.548Z,8.17
2017-10-10T16:12:53.075Z,12.53
2017-10-10T16:15:21.345Z,4.57
2017-10-10T16:17:49.637Z,7.50
2017-10-10T16:20:17.909Z,5.40
2017-10-10T16:22:46.196Z,4.77
2017-10-10T16:25:13.705Z,4.37
2017-10-10T16:27:41.231Z,3.93
2017-10-10T16:30:08.735Z,6.63
2017-10-10T16:32:36.256Z,3.93
2017-10-10T16:35:03.755Z,11.07
2017-10-10T16:37:31.281Z,5.60
2017-10-10T16:39:58.787Z,4.00
2017-10-10T16:42:27.075Z,4.50
2017-10-10T16:44:55.344Z,5.03
2017-10-10T16:47:23.635Z,4.67
2017-10-10T16:49:51.139Z,5.40
2017-10-10T16:52:18.659Z,6.33
2017-10-10T16:54:46.158Z,5.03
2017-10-10T16:57:13.681Z,4.07
2017-10-10T16:59:41.178Z,4.67
2017-10-10T17:02:08.701Z,5.03
2017-10-10T17:04:36.206Z,6.40
2017-10-10T17:07:03.749Z,9.03
2017-10-10T17:09:31.259Z,7.47
2017-10-10T17:11:58.755Z,7.53
2017-10-10T17:14:26.282Z,4.70
2017-10-10T17:16:53.782Z,5.93
2017-10-10T17:19:21.304Z,6.23
2017-10-10T17:21:48.800Z,4.37
2017-10-10T17:24:16.321Z,9.10
2017-10-10T17:26:43.823Z,5.43
2017-10-10T17:29:11.340Z,5.30
2017-10-10T17:31:38.836Z,6.10
2017-10-10T17:34:06.351Z,9.07
2017-10-10T17:36:33.851Z,6.30
2017-10-10T17:39:01.359Z,9.97
2017-10-10T17:41:28.859Z,9.00
2017-10-10T17:43:56.380Z,13.20
2017-10-10T17:46:23.887Z,6.80
2017-10-10T17:48:51.408Z,5.37
2017-10-10T17:51:18.902Z,9.97
2017-10-10T17:53:46.416Z,9.20
2017-10-10T17:56:13.915Z,9.57
2017-10-10T17:58:41.443Z,9.63
2017-10-10T18:01:08.951Z,9.13
2017-10-10T18:03:37.243Z,8.30
2017-10-10T18:06:05.503Z,9.13
2017-10-10T18:08:33.791Z,7.70
2017-10-10T18:11:02.056Z,5.90
2017-10-10T18:13:30.364Z,6.87
2017-10-10T18:15:57.868Z,6.73
2017-10-10T18:18:25.375Z,6.93
2017-10-10T18:20:52.895Z,4.63
2017-10-10T18:23:20.403Z,11.23
2017-10-10T18:25:47.915Z,7.87
2017-10-10T18:28:15.416Z,9.87
2017-10-10T18:30:42.939Z,9.27
2017-10-10T18:33:11.208Z,8.97
2017-10-10T18:35:39.504Z,7.10
2017-10-10T18:38:07.007Z,10.83
2017-10-10T18:40:34.523Z,11.17
2017-10-10T18:43:02.787Z,11.03
2017-10-10T18:45:31.066Z,9.90
2017-10-10T18:47:59.335Z,19.00
2017-10-10T18:50:27.628Z,10.33
2017-10-10T18:52:55.895Z,9.83
2017-10-10T18:55:24.196Z,13.13
2017-10-10T18:57:51.705Z,7.63
2017-10-10T19:00:20.008Z,11.80
2017-10-10T19:02:48.271Z,15.37
2017-10-10T19:05:16.560Z,13.47
2017-10-10T19:07:44.824Z,11.73
2017-10-10T19:10:13.111Z,11.00
2017-10-10T19:12:41.390Z,12.03
2017-10-10T19:15:09.750Z,12.07
2017-10-10T19:17:38.079Z,15.93
2017-10-10T19:20:05.583Z,13.97
2017-10-10T19:22:33.103Z,12.60
2017-10-10T19:25:01.384Z,16.17
2017-10-10T19:27:28.908Z,12.37
2017-10-10T19:29:56.466Z,15.27
2017-10-10T19:32:23.991Z,13.83
2017-10-10T19:34:51.496Z,15.23
2017-10-10T19:37:19.003Z,13.33
2017-10-10T19:39:46.792Z,12.57
2017-10-10T19:42:14.318Z,14.00
2017-10-10T19:44:41.861Z,10.77
2017-10-10T19:47:09.374Z,13.17
2017-10-10T19:49:36.942Z,12.77
2017-10-10T19:52:04.476Z,14.23
2017-10-10T19:54:32.739Z,17.73
2017-10-10T19:57:00.259Z,14.27
2017-10-10T19:59:27.763Z,15.03
2017-10-10T20:01:56.087Z,11.70
2017-10-10T20:04:23.613Z,13.83
2017-10-10T20:06:51.937Z,12.87
2017-10-10T20:09:19.451Z,12.43
2017-10-10T20:11:47.719Z,15.77
2017-10-10T20:14:16.002Z,17.60
2017-10-10T20:16:44.276Z,13.73
2017-10-10T20:19:12.564Z,11.80
2017-10-10T20:21:40.063Z,11.60
2017-10-10T20:24:07.644Z,15.47
2017-10-10T20:26:35.153Z,12.43
2017-10-10T20:29:02.671Z,13.10
2017-10-10T20:31:30.181Z,14.83
2017-10-10T20:33:57.700Z,15.80
2017-10-10T20:36:25.972Z,13.23
2017-10-10T20:38:54.261Z,10.00
2017-10-10T20:41:21.768Z,14.60
2017-10-10T20:43:49.292Z,15.00
2017-10-10T20:46:16.797Z,13.97
2017-10-10T20:48:44.452Z,15.63
2017-10-10T20:51:11.966Z,13.70
2017-10-10T20:53:39.496Z,13.63
2017-10-10T20:56:07.763Z,13.70
2017-10-10T20:58:35.281Z,16.67
2017-10-10T21:01:02.792Z,16.37
2017-10-10T21:03:31.071Z,14.53
2017-10-10T21:05:59.343Z,17.23
2017-10-10T21:08:27.631Z,21.33
2017-10-10T21:10:55.688Z,15.27
2017-10-10T21:13:23.974Z,15.53
2017-10-10T21:15:52.246Z,12.50
2017-10-10T21:18:20.522Z,13.50
2017-10-10T21:20:48.791Z,19.10
2017-10-10T21:23:17.071Z,13.83
2017-10-10T21:25:45.340Z,14.23
2017-10-10T21:28:13.880Z,15.03
2017-10-10T21:30:41.385Z,15.27
2017-10-10T21:33:09.682Z,16.17
2017-10-10T21:35:37.180Z,15.20
2017-10-10T21:38:05.471Z,15.60
2017-10-10T21:40:32.979Z,11.80
2017-10-10T21:43:00.507Z,12.37
2017-10-10T21:45:28.775Z,11.17
2017-10-10T21:47:56.291Z,13.83
2017-10-10T21:50:23.787Z,13.40
2017-10-10T21:52:51.310Z,14.20
2017-10-10T21:55:18.822Z,14.57
2017-10-10T21:57:47.111Z,13.27
2017-10-10T22:00:14.612Z,10.33
2017-10-10T22:02:42.131Z,13.00
2017-10-10T22:05:09.635Z,10.77
2017-10-10T22:07:37.160Z,11.10
2017-10-10T22:10:04.680Z,10.70
2017-10-10T22:12:32.978Z,12.20
2017-10-10T22:15:00.472Z,14.53
2017-10-10T22:17:27.979Z,13.10
2017-10-10T22:19:56.269Z,11.07
2017-10-10T22:22:23.779Z,11.50
2017-10-10T22:24:51.298Z,13.53
2017-10-10T22:27:18.799Z,10.50
2017-10-10T22:29:46.337Z,18.50
2017-10-10T22:32:13.841Z,10.20
2017-10-10T22:34:41.359Z,11.50
2017-10-10T22:37:08.860Z,11.40
2017-10-10T22:39:37.139Z,9.67
2017-10-10T22:42:05.398Z,13.43
2017-10-10T22:44:32.910Z,14.73
2017-10-10T22:47:00.408Z,9.87
2017-10-10T22:49:27.932Z,14.07
2017-10-10T22:51:55.432Z,11.43
2017-10-10T22:54:22.948Z,11.67
2017-10-10T22:56:50.444Z,9.93
2017-10-10T22:59:17.957Z,11.07
2017-10-10T23:01:45.453Z,9.03
2017-10-10T23:04:12.971Z,13.80
2017-10-10T23:06:40.467Z,12.13
2017-10-10T23:09:07.979Z,10.30
2017-10-10T23:11:35.475Z,16.53
2017-10-10T23:14:02.997Z,11.60
2017-10-10T23:16:30.495Z,13.90
2017-10-10T23:18:58.007Z,12.67
2017-10-10T23:21:25.499Z,9.70
2017-10-10T23:23:53.094Z,11.43
2017-10-10T23:26:21.359Z,10.70
2017-10-10T23:28:48.879Z,11.03
2017-10-10T23:31:16.370Z,10.97
2017-10-10T23:33:43.884Z,9.37
2017-10-10T23:36:11.379Z,9.00
2017-10-10T23:38:38.895Z,14.63
2017-10-10T23:41:06.391Z,7.90
2017-10-10T23:43:33.914Z,10.80
2017-10-10T23:46:01.430Z,12.40
2017-10-10T23:48:29.724Z,11.93
2017-10-10T23:50:57.992Z,11.23
2017-10-10T23:53:26.280Z,11.33
2017-10-10T23:55:53.784Z,12.30
2017-10-10T23:58:21.298Z,9.50
